Time;durP1;ratioP1;P1;durP2;ratioP2;P2;SDS_P1;SDS_P2;PMS_P1;PMS_P2;Temp;Humidity;BMP_temperature;BMP_pressure;BME280_temperature;BME280_humidity;BME280_pressure;Samples;Min_cycle;Max_cycle;Signal;HPM_P1;HPM_P2
2021/06/04 00:00:54;;;;;;;0.70;0.60;;;22.80;50.90;;;;;;6341686;28;20020;-68
2021/06/04 00:03:56;;;;;;;0.90;0.65;;;22.80;50.90;;;;;;6342204;28;20023;-68
2021/06/04 00:06:57;;;;;;;0.90;0.77;;;22.80;50.90;;;;;;6341552;28;20555;-68
2021/06/04 00:09:58;;;;;;;1.10;0.60;;;22.80;50.90;;;;;;6322612;28;20319;-68
2021/06/04 00:13:24;;;;;;;1.25;0.68;;;22.80;50.90;;;;;;6341380;28;20024;-68
2021/06/04 00:16:49;;;;;;;0.60;0.57;;;22.80;50.90;;;;;;6323196;28;20111;-68
2021/06/04 00:19:51;;;;;;;0.93;0.73;;;22.80;50.90;;;;;;6341263;28;20016;-68
2021/06/04 00:22:52;;;;;;;0.60;0.55;;;22.80;50.90;;;;;;6341261;28;20066;-68
2021/06/04 00:25:53;;;;;;;0.85;0.70;;;22.80;50.90;;;;;;6322456;28;20365;-68
2021/06/04 00:28:54;;;;;;;0.45;0.45;;;22.80;50.90;;;;;;6341408;28;20035;-68
2021/06/04 00:31:55;;;;;;;1.08;0.60;;;22.80;50.90;;;;;;6340969;28;20484;-69
2021/06/04 00:34:55;;;;;;;0.80;0.70;;;22.80;50.90;;;;;;6322880;28;20020;-68
2021/06/04 00:37:56;;;;;;;0.60;0.50;;;22.80;50.90;;;;;;6322303;28;20040;-69
2021/06/04 00:41:01;;;;;;;0.95;0.70;;;22.80;50.90;;;;;;6332478;28;20428;-68
2021/06/04 00:44:03;;;;;;;2.28;0.95;;;22.80;50.90;;;;;;6337079;28;20316;-66
2021/06/04 00:47:05;;;;;;;0.98;0.60;;;22.80;51.00;;;;;;6341397;28;20275;-66
2021/06/04 00:50:12;;;;;;;0.52;0.50;;;22.80;51.00;;;;;;6340918;28;20034;-66
2021/06/04 00:53:13;;;;;;;0.63;0.52;;;22.80;51.00;;;;;;6340775;28;20019;-66
2021/06/04 00:56:16;;;;;;;0.75;0.63;;;22.80;51.00;;;;;;6340719;28;20086;-66
2021/06/04 00:59:25;;;;;;;0.60;0.50;;;22.80;51.00;;;;;;6337875;28;20455;-65
2021/06/04 01:02:26;;;;;;;0.63;0.60;;;22.80;50.90;;;;;;6321644;28;20035;-66
2021/06/04 01:05:28;;;;;;;0.60;0.60;;;22.80;50.90;;;;;;6338519;28;20538;-65
2021/06/04 01:09:03;;;;;;;0.60;0.50;;;22.80;51.00;;;;;;6340135;28;20236;-66
2021/06/04 01:12:30;;;;;;;0.70;0.47;;;22.80;50.90;;;;;;6332513;28;20020;-65
2021/06/04 01:16:00;;;;;;;0.70;0.63;;;22.80;51.00;;;;;;6291750;28;20039;-66
2021/06/04 01:19:29;;;;;;;0.60;0.60;;;22.80;51.00;;;;;;6339705;28;20110;-66
2021/06/04 01:22:36;;;;;;;0.57;0.40;;;22.80;51.00;;;;;;6339235;28;20020;-66
2021/06/04 01:25:53;;;;;;;0.95;0.50;;;22.80;51.00;;;;;;6339252;28;20416;-65
2021/06/04 01:28:58;;;;;;;0.60;0.60;;;22.80;51.00;;;;;;6339438;28;20019;-65
2021/06/04 01:32:04;;;;;;;0.60;0.55;;;22.80;51.00;;;;;;6338863;28;20035;-66
2021/06/04 01:35:21;;;;;;;0.90;0.77;;;22.80;51.00;;;;;;6339274;28;20348;-66
2021/06/04 01:38:28;;;;;;;0.60;0.60;;;22.80;51.00;;;;;;6334418;28;20409;-66
2021/06/04 01:41:31;;;;;;;0.75;0.60;;;22.80;51.00;;;;;;6338606;28;20469;-65
2021/06/04 01:44:36;;;;;;;0.57;0.50;;;22.80;51.00;;;;;;6338954;28;20169;-66
2021/06/04 01:47:43;;;;;;;0.75;0.60;;;22.80;51.00;;;;;;6338594;28;20076;-65
2021/06/04 01:51:00;;;;;;;1.08;0.80;;;22.80;51.00;;;;;;6320481;28;20050;-66
2021/06/04 01:54:10;;;;;;;0.52;0.52;;;22.80;51.00;;;;;;6336477;28;20058;-66
2021/06/04 01:57:15;;;;;;;0.73;0.60;;;22.80;51.00;;;;;;6338399;28;20521;-66
2021/06/04 02:00:19;;;;;;;0.52;0.50;;;22.80;51.00;;;;;;6338606;28;20035;-65
2021/06/04 02:03:23;;;;;;;0.60;0.52;;;22.80;51.00;;;;;;6319307;28;20035;-65
2021/06/04 02:06:26;;;;;;;0.60;0.60;;;22.80;51.10;;;;;;6348033;27;20554;-66
2021/06/04 02:09:28;;;;;;;0.85;0.50;;;22.80;51.00;;;;;;6338325;28;20080;-66
2021/06/04 02:12:29;;;;;;;0.40;0.40;;;22.80;51.10;;;;;;6338888;28;20047;-66
2021/06/04 02:15:33;;;;;;;0.60;0.60;;;22.80;51.00;;;;;;6335228;28;20481;-66
2021/06/04 02:18:42;;;;;;;0.70;0.70;;;22.80;51.00;;;;;;6339057;28;20058;-66
2021/06/04 02:21:57;;;;;;;0.70;0.60;;;22.80;51.10;;;;;;6337761;28;20047;-66
2021/06/04 02:25:08;;;;;;;0.77;0.60;;;22.80;51.10;;;;;;6338305;28;20255;-66
2021/06/04 02:28:26;;;;;;;0.57;0.57;;;22.80;51.10;;;;;;6337812;28;20034;-66
2021/06/04 02:31:42;;;;;;;0.68;0.60;;;22.80;51.10;;;;;;6337547;28;20020;-66
2021/06/04 02:34:48;;;;;;;0.63;0.60;;;22.80;51.10;;;;;;6324465;28;20031;-65
2021/06/04 02:37:59;;;;;;;0.80;0.60;;;22.80;51.10;;;;;;6343308;28;20115;-66
2021/06/04 02:41:12;;;;;;;1.15;0.60;;;22.80;51.10;;;;;;6342319;28;20442;-66
2021/06/04 02:44:25;;;;;;;0.50;0.50;;;22.80;51.10;;;;;;6337968;28;20538;-66
2021/06/04 02:47:37;;;;;;;0.40;0.40;;;22.80;51.10;;;;;;6342909;28;20031;-66
2021/06/04 02:50:48;;;;;;;0.60;0.60;;;22.80;51.10;;;;;;6330438;28;20031;-66
2021/06/04 02:53:52;;;;;;;0.73;0.60;;;22.80;51.10;;;;;;6336572;28;20032;-66
2021/06/04 02:57:00;;;;;;;0.57;0.57;;;22.80;51.10;;;;;;6342966;28;20015;-65
2021/06/04 03:00:00;;;;;;;0.60;0.52;;;22.80;51.10;;;;;;6342788;28;20030;-66
2021/06/04 03:03:01;;;;;;;1.10;0.70;;;22.80;51.10;;;;;;6343145;28;20020;-66
2021/06/04 03:06:03;;;;;;;0.63;0.60;;;22.80;51.20;;;;;;6338873;28;20038;-66
2021/06/04 03:09:12;;;;;;;1.23;0.68;;;22.80;51.20;;;;;;6342718;28;20216;-66
2021/06/04 03:12:19;;;;;;;0.95;0.70;;;22.80;51.10;;;;;;6343317;28;20019;-66
2021/06/04 03:15:30;;;;;;;0.73;0.60;;;22.80;51.20;;;;;;6344644;28;20031;-66
2021/06/04 03:18:53;;;;;;;0.70;0.52;;;22.80;51.10;;;;;;6323868;28;20027;-66
2021/06/04 03:22:08;;;;;;;0.65;0.40;;;22.80;51.10;;;;;;6340304;28;20070;-66
2021/06/04 03:25:20;;;;;;;1.02;0.70;;;22.80;51.20;;;;;;6342774;28;20574;-66
2021/06/04 03:28:24;;;;;;;0.80;0.80;;;22.80;51.20;;;;;;6342009;28;20028;-66
2021/06/04 03:31:28;;;;;;;0.57;0.53;;;22.80;51.10;;;;;;6342374;28;20032;-66
2021/06/04 03:34:29;;;;;;;0.45;0.45;;;22.80;51.20;;;;;;6342025;28;20411;-65
2021/06/04 03:37:30;;;;;;;0.57;0.50;;;22.80;51.20;;;;;;6323338;28;20422;-66
2021/06/04 03:40:33;;;;;;;0.60;0.55;;;22.80;51.20;;;;;;6344103;28;20031;-66
2021/06/04 03:43:33;;;;;;;0.80;0.70;;;22.80;51.20;;;;;;6339250;28;20024;-66
2021/06/04 03:46:35;;;;;;;0.60;0.50;;;22.80;51.20;;;;;;6340122;28;20330;-66
2021/06/04 03:49:36;;;;;;;0.93;0.70;;;22.80;51.20;;;;;;6341526;28;20031;-66
2021/06/04 03:52:37;;;;;;;0.60;0.60;;;22.80;51.20;;;;;;6316101;28;20028;-65
2021/06/04 03:55:40;;;;;;;0.40;0.40;;;22.80;51.20;;;;;;6339662;28;20086;-66
2021/06/04 03:58:41;;;;;;;0.50;0.50;;;22.80;51.20;;;;;;6323123;28;20039;-65
2021/06/04 04:01:54;;;;;;;0.88;0.60;;;22.80;51.20;;;;;;6341693;28;20030;-66
2021/06/04 04:04:58;;;;;;;0.70;0.55;;;22.80;51.20;;;;;;6341386;28;20387;-66
2021/06/04 04:08:01;;;;;;;0.50;0.50;;;22.80;51.20;;;;;;6342549;28;20034;-65
2021/06/04 04:11:03;;;;;;;0.50;0.50;;;22.80;51.20;;;;;;6342046;28;20039;-64
2021/06/04 04:14:05;;;;;;;0.95;0.80;;;22.80;51.30;;;;;;6341693;28;20409;-65
2021/06/04 04:17:05;;;;;;;1.02;0.65;;;22.80;51.20;;;;;;6333628;28;20124;-65
2021/06/04 04:20:06;;;;;;;3.13;0.50;;;22.80;51.30;;;;;;6341398;28;20024;-65
2021/06/04 04:23:10;;;;;;;1.27;0.75;;;22.80;51.20;;;;;;6340623;28;20155;-65
2021/06/04 04:26:14;;;;;;;0.93;0.68;;;22.80;51.20;;;;;;6341620;28;20022;-64
2021/06/04 04:29:15;;;;;;;0.60;0.60;;;22.80;51.20;;;;;;6340849;28;20535;-64
2021/06/04 04:32:16;;;;;;;0.60;0.60;;;22.80;51.30;;;;;;6322557;28;20031;-65
2021/06/04 04:35:22;;;;;;;0.50;0.50;;;22.80;51.30;;;;;;6336456;28;20213;-65
2021/06/04 04:38:23;;;;;;;0.60;0.50;;;22.80;51.30;;;;;;6341039;28;20026;-65
2021/06/04 04:41:25;;;;;;;0.50;0.50;;;22.80;51.20;;;;;;6340572;28;20325;-65
2021/06/04 04:44:31;;;;;;;0.60;0.55;;;22.80;51.30;;;;;;6340664;28;20389;-65
2021/06/04 04:47:31;;;;;;;0.60;0.60;;;22.80;51.30;;;;;;6341807;28;20077;-68
2021/06/04 04:50:34;;;;;;;0.63;0.50;;;22.80;51.30;;;;;;6340119;28;20028;-68
2021/06/04 04:53:36;;;;;;;0.60;0.60;;;22.80;51.30;;;;;;6330648;28;20077;-68
2021/06/04 04:56:37;;;;;;;0.93;0.40;;;22.80;51.30;;;;;;6340152;28;20052;-68
2021/06/04 04:59:38;;;;;;;0.55;0.55;;;22.70;51.20;;;;;;6339115;28;20027;-68
2021/06/04 05:02:39;;;;;;;0.88;0.63;;;22.80;51.20;;;;;;6305851;28;20044;-68
2021/06/04 05:05:40;;;;;;;0.80;0.60;;;22.80;51.30;;;;;;6339278;28;20023;-68
2021/06/04 05:08:41;;;;;;;0.55;0.55;;;22.80;51.30;;;;;;6339993;28;20431;-68
2021/06/04 05:11:41;;;;;;;0.70;0.65;;;22.80;51.30;;;;;;6339157;28;20157;-68
2021/06/04 05:14:42;;;;;;;0.85;0.40;;;22.80;51.30;;;;;;6321286;28;20084;-68
2021/06/04 05:17:43;;;;;;;0.70;0.47;;;22.80;51.30;;;;;;6317256;28;20503;-68
2021/06/04 05:20:45;;;;;;;0.50;0.50;;;22.80;51.30;;;;;;6320117;28;20027;-68
2021/06/04 05:23:46;;;;;;;0.60;0.50;;;22.80;51.30;;;;;;6321238;28;20022;-68
2021/06/04 05:26:48;;;;;;;0.50;0.50;;;22.80;51.30;;;;;;6339541;28;20028;-68
2021/06/04 05:29:49;;;;;;;0.45;0.45;;;22.70;51.20;;;;;;6322940;28;20028;-68
2021/06/04 05:32:49;;;;;;;0.80;0.60;;;22.70;51.20;;;;;;6319769;28;20043;-68
2021/06/04 05:35:51;;;;;;;0.70;0.70;;;22.80;51.30;;;;;;6339747;28;20027;-68
2021/06/04 05:38:52;;;;;;;0.70;0.70;;;22.80;51.40;;;;;;6339455;28;20032;-68
2021/06/04 05:42:01;;;;;;;0.60;0.50;;;22.80;52.00;;;;;;6334342;28;20030;-68
2021/06/04 05:45:03;;;;;;;0.57;0.57;;;22.80;51.30;;;;;;6317567;28;20044;-68
2021/06/04 05:48:04;;;;;;;0.73;0.50;;;22.80;51.30;;;;;;6339648;28;20027;-68
2021/06/04 05:51:09;;;;;;;0.80;0.60;;;22.80;51.30;;;;;;6337485;28;20538;-68
2021/06/04 05:54:13;;;;;;;0.60;0.60;;;22.80;51.40;;;;;;6343874;28;20031;-66
2021/06/04 05:57:16;;;;;;;0.60;0.60;;;22.80;51.30;;;;;;6339527;28;20055;-66
2021/06/04 06:00:35;;;;;;;0.70;0.60;;;22.70;51.30;;;;;;6335907;28;20093;-70
2021/06/04 06:03:37;;;;;;;0.55;0.55;;;22.80;51.40;;;;;;6343431;28;20480;-67
2021/06/04 06:06:38;;;;;;;0.80;0.80;;;22.80;51.40;;;;;;6336360;28;20031;-66
2021/06/04 06:09:38;;;;;;;0.50;0.50;;;22.80;51.40;;;;;;6321075;28;20023;-67
2021/06/04 06:12:40;;;;;;;0.55;0.55;;;22.80;51.40;;;;;;6337809;28;20074;-67
2021/06/04 06:15:41;;;;;;;1.13;0.70;;;22.80;51.40;;;;;;6340121;28;20460;-67
2021/06/04 06:18:41;;;;;;;0.73;0.50;;;22.80;51.40;;;;;;6342295;28;20023;-67
2021/06/04 06:21:48;;;;;;;0.93;0.45;;;22.80;51.40;;;;;;6323330;28;20472;-67
2021/06/04 06:24:49;;;;;;;1.10;0.50;;;22.80;51.40;;;;;;6342118;28;20024;-67
2021/06/04 06:27:50;;;;;;;0.68;0.50;;;22.80;51.40;;;;;;6323028;28;20024;-67
2021/06/04 06:30:51;;;;;;;3.53;0.70;;;22.80;51.40;;;;;;6337721;28;20534;-67
2021/06/04 06:33:53;;;;;;;2.50;0.80;;;22.80;51.40;;;;;;6341964;28;20459;-66
2021/06/04 06:36:53;;;;;;;4.20;1.15;;;22.80;51.40;;;;;;6342141;28;20020;-67
2021/06/04 06:39:54;;;;;;;6.43;1.00;;;22.80;51.40;;;;;;6334055;28;20035;-67
2021/06/04 06:42:55;;;;;;;2.55;1.20;;;22.80;51.40;;;;;;6342145;28;20028;-67
2021/06/04 06:45:56;;;;;;;4.97;1.45;;;22.80;51.40;;;;;;6339233;28;20027;-67
2021/06/04 06:48:59;;;;;;;7.82;2.05;;;22.80;51.40;;;;;;6339824;28;20027;-67
2021/06/04 06:51:59;;;;;;;13.40;1.67;;;22.80;51.40;;;;;;6341493;28;20023;-67
2021/06/04 06:55:00;;;;;;;4.68;1.65;;;22.80;51.40;;;;;;6333869;28;20078;-66
2021/06/04 06:58:01;;;;;;;8.18;1.20;;;22.80;51.40;;;;;;6322417;28;20031;-67
2021/06/04 07:01:04;;;;;;;8.27;1.83;;;22.80;51.40;;;;;;6341020;28;20016;-67
2021/06/04 07:04:04;;;;;;;14.23;1.90;;;22.80;51.40;;;;;;6335756;28;20047;-67
2021/06/04 07:07:06;;;;;;;8.43;1.67;;;22.80;51.40;;;;;;6336275;28;20036;-67
2021/06/04 07:10:11;;;;;;;7.97;1.60;;;22.80;51.40;;;;;;6341200;28;20031;-67
2021/06/04 07:13:14;;;;;;;8.40;1.92;;;22.80;51.40;;;;;;6333644;28;20095;-67
2021/06/04 07:16:15;;;;;;;8.13;2.05;;;22.80;51.40;;;;;;6341033;28;20059;-66
2021/06/04 07:19:16;;;;;;;9.52;2.42;;;22.80;51.40;;;;;;6343357;28;20514;-66
2021/06/04 07:22:16;;;;;;;12.77;2.15;;;22.70;51.40;;;;;;6327543;28;20030;-66
2021/06/04 07:25:18;;;;;;;12.35;2.13;;;22.70;51.40;;;;;;6345417;28;20550;-67
2021/06/04 07:28:22;;;;;;;10.40;2.50;;;22.70;51.40;;;;;;6344579;28;20388;-67
2021/06/04 07:31:22;;;;;;;14.85;3.30;;;22.80;51.50;;;;;;6344860;28;20093;-67
2021/06/04 07:34:25;;;;;;;10.85;2.58;;;22.70;51.40;;;;;;6345768;28;20020;-67
2021/06/04 07:37:27;;;;;;;13.23;2.20;;;22.80;51.50;;;;;;6345302;28;20094;-67
2021/06/04 07:40:29;;;;;;;18.00;2.88;;;22.70;51.40;;;;;;6343925;28;20039;-66
2021/06/04 07:43:32;;;;;;;12.82;2.15;;;22.70;51.40;;;;;;6344985;28;20023;-67
2021/06/04 07:46:33;;;;;;;7.05;2.08;;;22.70;51.40;;;;;;6345194;28;20416;-66
2021/06/04 07:49:34;;;;;;;12.35;2.33;;;22.80;51.40;;;;;;6326855;28;20019;-66
2021/06/04 07:52:35;;;;;;;14.88;2.15;;;22.70;51.40;;;;;;6345438;28;20077;-66
2021/06/04 07:55:36;;;;;;;7.95;2.58;;;22.70;51.40;;;;;;6327077;28;20123;-66
2021/06/04 07:58:37;;;;;;;9.13;2.47;;;22.70;51.40;;;;;;6344888;28;20407;-67
2021/06/04 08:01:40;;;;;;;11.68;2.50;;;22.80;51.50;;;;;;6341248;28;20020;-67
2021/06/04 08:04:40;;;;;;;10.38;2.60;;;22.70;51.40;;;;;;6342739;28;20435;-66
2021/06/04 08:07:42;;;;;;;7.68;2.67;;;22.80;51.50;;;;;;6341907;28;20031;-66
2021/06/04 08:10:43;;;;;;;11.48;2.47;;;22.80;51.50;;;;;;6341909;28;20038;-67
2021/06/04 08:13:45;;;;;;;7.95;2.22;;;22.80;51.50;;;;;;6344261;28;20408;-66
2021/06/04 08:16:46;;;;;;;6.32;2.20;;;22.80;51.50;;;;;;6325316;28;20051;-66
2021/06/04 08:19:47;;;;;;;6.38;2.45;;;22.70;51.50;;;;;;6341812;28;20432;-67
2021/06/04 08:22:50;;;;;;;7.10;2.00;;;22.70;51.40;;;;;;6344332;28;20099;-66
2021/06/04 08:25:55;;;;;;;6.60;2.22;;;22.70;51.50;;;;;;6343852;28;20023;-66
2021/06/04 08:28:56;;;;;;;5.15;1.92;;;22.80;51.50;;;;;;6326376;28;20667;-66
2021/06/04 08:31:58;;;;;;;9.15;2.40;;;22.70;51.40;;;;;;6343236;28;20032;-66
2021/06/04 08:34:58;;;;;;;6.25;1.70;;;22.80;51.60;;;;;;6343912;28;20596;-66
2021/06/04 08:38:02;;;;;;;5.25;1.95;;;22.70;51.50;;;;;;6343702;28;20019;-66
2021/06/04 08:41:18;;;;;;;6.45;2.15;;;22.70;51.50;;;;;;6334233;28;20496;-66
2021/06/04 08:44:37;;;;;;;7.25;2.08;;;22.80;51.50;;;;;;6336361;28;20027;-65
2021/06/04 08:47:40;;;;;;;5.07;2.10;;;22.80;51.50;;;;;;6343411;28;20047;-65
2021/06/04 08:50:51;;;;;;;9.57;2.38;;;22.70;51.50;;;;;;6343345;28;20024;-68
2021/06/04 08:54:30;;;;;;;6.65;2.47;;;22.70;51.50;;;;;;6325326;28;20035;-69
2021/06/04 08:57:30;;;;;;;8.05;2.35;;;22.70;51.50;;;;;;6343398;28;20032;-68
2021/06/04 09:00:37;;;;;;;6.85;2.15;;;22.70;51.50;;;;;;6337248;28;20027;-69
2021/06/04 09:03:57;;;;;;;8.05;2.45;;;22.70;51.50;;;;;;6322195;28;20027;-69
2021/06/04 09:07:18;;;;;;;6.97;2.05;;;22.70;51.50;;;;;;6316983;28;20026;-68
2021/06/04 09:10:25;;;;;;;6.00;2.00;;;22.70;51.50;;;;;;6342476;28;20243;-68
2021/06/04 09:13:30;;;;;;;7.10;2.03;;;22.70;51.50;;;;;;6342754;28;20024;-68
2021/06/04 09:17:09;;;;;;;6.78;2.63;;;22.70;51.50;;;;;;6342132;28;20237;-69
2021/06/04 09:20:22;;;;;;;9.45;2.58;;;22.70;51.50;;;;;;6330290;28;20063;-69
2021/06/04 09:23:29;;;;;;;5.22;2.05;;;22.70;51.50;;;;;;6343234;28;20023;-69
2021/06/04 09:26:30;;;;;;;3.80;1.85;;;22.70;51.50;;;;;;6343145;28;20019;-69
2021/06/04 09:29:32;;;;;;;8.38;2.40;;;22.70;51.50;;;;;;6342530;28;20057;-69
2021/06/04 09:32:33;;;;;;;7.40;2.05;;;22.70;51.50;;;;;;6318451;28;20024;-69
2021/06/04 09:35:36;;;;;;;7.00;2.05;;;22.70;51.60;;;;;;6342339;28;20089;-69
2021/06/04 09:38:48;;;;;;;4.05;1.80;;;22.70;52.20;;;;;;6342320;28;20040;-68
2021/06/04 09:41:50;;;;;;;4.10;2.10;;;22.80;51.60;;;;;;6333236;28;20031;-69
2021/06/04 09:44:59;;;;;;;8.38;2.22;;;22.70;51.60;;;;;;6342512;28;20039;-69
2021/06/04 09:48:30;;;;;;;8.52;2.33;;;22.70;51.60;;;;;;6341337;28;20059;-69
2021/06/04 09:51:36;;;;;;;5.40;1.75;;;22.70;51.60;;;;;;6308665;28;20058;-69
2021/06/04 09:54:36;;;;;;;5.05;2.13;;;22.70;51.50;;;;;;6307001;28;20039;-69
2021/06/04 09:57:54;;;;;;;7.22;1.95;;;22.70;51.60;;;;;;6341814;28;20480;-69
2021/06/04 10:00:54;;;;;;;4.63;1.92;;;22.70;51.60;;;;;;6314366;28;20324;-69
2021/06/04 10:04:03;;;;;;;6.25;1.98;;;22.70;51.60;;;;;;6323833;28;20069;-68
2021/06/04 10:07:15;;;;;;;4.93;1.80;;;22.70;51.60;;;;;;6338140;28;20039;-68
2021/06/04 10:10:25;;;;;;;4.70;2.20;;;22.70;51.60;;;;;;6341433;28;20027;-68
2021/06/04 10:13:35;;;;;;;4.68;1.92;;;22.70;51.60;;;;;;6341681;28;20102;-69
2021/06/04 10:19:51;;;;;;;;;;;22.70;51.60;;;;;;6341090;28;20038;-69
2021/06/04 10:23:01;;;;;;;4.63;1.98;;;22.70;51.60;;;;;;6341970;28;20002;-69
2021/06/04 10:26:19;;;;;;;3.80;1.83;;;22.70;51.60;;;;;;6341921;28;20491;-69
2021/06/04 10:29:20;;;;;;;5.03;1.95;;;22.70;51.60;;;;;;6341658;28;20015;-69
2021/06/04 10:32:22;;;;;;;3.45;1.70;;;22.70;51.60;;;;;;6333640;28;20141;-69
2021/06/04 10:35:28;;;;;;;5.13;2.08;;;22.70;51.60;;;;;;6342355;28;20059;-69
2021/06/04 10:38:36;;;;;;;4.40;1.60;;;22.70;51.60;;;;;;6323428;28;20077;-69
2021/06/04 10:42:05;;;;;;;4.95;2.00;;;22.70;51.60;;;;;;6342176;28;20028;-69
2021/06/04 10:45:14;;;;;;;6.13;1.70;;;22.70;51.60;;;;;;6341673;28;20047;-69
2021/06/04 10:48:32;;;;;;;2.92;1.50;;;22.70;51.60;;;;;;6325075;28;20069;-69
2021/06/04 10:51:50;;;;;;;3.80;1.80;;;22.70;51.60;;;;;;6341729;28;20047;-69
2021/06/04 10:55:15;;;;;;;4.88;2.03;;;22.70;51.60;;;;;;6335738;28;20047;-66
2021/06/04 10:58:41;;;;;;;5.17;1.80;;;22.70;51.60;;;;;;6325708;28;20483;-66
2021/06/04 11:02:22;;;;;;;4.53;1.75;;;22.70;51.60;;;;;;6346643;28;20043;-66
2021/06/04 11:05:45;;;;;;;3.78;1.67;;;22.70;51.60;;;;;;6327933;28;20370;-66
2021/06/04 11:09:04;;;;;;;3.30;1.55;;;22.70;51.60;;;;;;6343092;28;20028;-66
2021/06/04 11:12:26;;;;;;;3.30;1.50;;;22.70;51.60;;;;;;6347021;28;20020;-67
2021/06/04 11:15:49;;;;;;;3.15;1.83;;;22.70;51.60;;;;;;6340390;28;20034;-65
2021/06/04 11:19:39;;;;;;;5.88;1.92;;;22.70;51.70;;;;;;6346582;28;20015;-66
2021/06/04 11:23:10;;;;;;;3.17;1.80;;;22.70;51.60;;;;;;6319964;28;20179;-66
2021/06/04 11:26:21;;;;;;;3.40;1.83;;;22.70;51.60;;;;;;6345434;28;20085;-65
2021/06/04 11:29:33;;;;;;;3.67;1.73;;;22.70;51.70;;;;;;6345387;28;20027;-66
2021/06/04 11:32:57;;;;;;;3.53;1.80;;;22.70;51.70;;;;;;6325888;28;20496;-66
2021/06/04 11:36:22;;;;;;;3.83;1.73;;;22.70;51.70;;;;;;6345306;28;20034;-66
2021/06/04 11:39:40;;;;;;;3.88;1.80;;;22.70;51.70;;;;;;6344896;28;20035;-66
2021/06/04 11:42:46;;;;;;;6.00;1.98;;;22.70;51.70;;;;;;6325022;28;20506;-66
2021/06/04 11:45:48;;;;;;;3.45;1.70;;;22.70;51.70;;;;;;6345156;28;20027;-65
2021/06/04 11:49:09;;;;;;;4.05;1.60;;;22.70;51.70;;;;;;6344744;28;20106;-66
2021/06/04 11:52:21;;;;;;;2.95;1.52;;;22.70;51.70;;;;;;6311632;28;20550;-64
2021/06/04 11:55:27;;;;;;;3.97;1.98;;;22.70;51.70;;;;;;6344697;28;20047;-65
2021/06/04 11:58:28;;;;;;;2.38;1.33;;;22.70;51.70;;;;;;6324011;28;20385;-66
2021/06/04 12:01:39;;;;;;;3.95;1.70;;;22.70;51.70;;;;;;6319336;28;20016;-65
2021/06/04 12:05:05;;;;;;;2.28;1.35;;;22.70;51.70;;;;;;6318129;28;20052;-66
2021/06/04 12:08:14;;;;;;;3.45;1.40;;;22.70;51.70;;;;;;6319197;28;20476;-66
2021/06/04 12:11:18;;;;;;;3.08;1.60;;;22.70;51.70;;;;;;6301321;28;20401;-66
2021/06/04 12:14:21;;;;;;;4.13;1.65;;;22.70;51.70;;;;;;6320189;28;20127;-66
2021/06/04 12:17:30;;;;;;;2.85;1.40;;;22.70;51.70;;;;;;6320693;28;20042;-66
2021/06/04 12:20:30;;;;;;;3.22;1.40;;;22.70;51.70;;;;;;6310944;28;20024;-66
2021/06/04 12:23:48;;;;;;;2.97;1.52;;;22.70;51.70;;;;;;6319118;28;20016;-66
2021/06/04 12:27:12;;;;;;;3.22;1.50;;;22.70;51.70;;;;;;6303655;28;20026;-66
2021/06/04 12:30:51;;;;;;;2.75;1.55;;;22.70;51.70;;;;;;6318478;28;20032;-66
2021/06/04 12:33:55;;;;;;;4.18;1.50;;;22.70;51.70;;;;;;6318898;28;20094;-66
2021/06/04 12:37:02;;;;;;;3.42;1.60;;;22.70;51.70;;;;;;6336461;28;20027;-66
2021/06/04 12:40:28;;;;;;;1.63;1.20;;;22.70;51.70;;;;;;6323951;28;20093;-66
2021/06/04 12:43:31;;;;;;;3.78;1.48;;;22.70;51.70;;;;;;6329253;28;20023;-66
2021/06/04 12:47:05;;;;;;;2.13;1.40;;;22.70;51.70;;;;;;6343355;28;20039;-67
2021/06/04 12:50:09;;;;;;;3.10;1.38;;;22.70;51.70;;;;;;6321426;28;20028;-67
2021/06/04 12:53:28;;;;;;;2.53;1.50;;;22.70;51.70;;;;;;6329187;28;20114;-67
2021/06/04 12:56:28;;;;;;;1.90;1.25;;;22.70;51.70;;;;;;6326292;28;20086;-67
2021/06/04 12:59:31;;;;;;;2.63;1.58;;;22.70;51.70;;;;;;6340432;28;20031;-67
2021/06/04 13:02:33;;;;;;;3.47;1.40;;;22.70;51.70;;;;;;6339604;28;20043;-67
2021/06/04 13:05:35;;;;;;;1.85;1.23;;;22.70;51.70;;;;;;6322235;28;20112;-67
2021/06/04 13:08:45;;;;;;;3.63;1.48;;;22.70;51.70;;;;;;6341680;28;20027;-67
2021/06/04 13:11:46;;;;;;;3.20;1.30;;;22.70;51.70;;;;;;6337309;28;20542;-67
2021/06/04 13:14:50;;;;;;;2.58;1.23;;;22.70;51.70;;;;;;6327004;28;20550;-67
2021/06/04 13:18:00;;;;;;;2.87;1.47;;;22.70;51.70;;;;;;6324256;28;20359;-67
2021/06/04 13:21:16;;;;;;;2.30;1.40;;;22.70;51.80;;;;;;6342146;28;20078;-67
2021/06/04 13:24:32;;;;;;;1.88;1.20;;;22.70;51.70;;;;;;6312120;28;20024;-67
2021/06/04 13:27:35;;;;;;;1.77;1.20;;;22.70;51.70;;;;;;6323764;28;20436;-67
2021/06/04 13:30:38;;;;;;;2.88;1.70;;;22.70;51.70;;;;;;6323674;28;20023;-66
2021/06/04 13:33:44;;;;;;;2.03;1.27;;;22.70;51.70;;;;;;6342379;28;20092;-67
2021/06/04 13:36:46;;;;;;;2.97;1.42;;;22.70;51.70;;;;;;6332990;28;20031;-67
2021/06/04 13:39:47;;;;;;;2.10;1.10;;;22.70;51.80;;;;;;6333558;28;20056;-67
2021/06/04 13:42:53;;;;;;;1.50;0.98;;;22.70;51.80;;;;;;6333238;28;20030;-67
2021/06/04 13:45:54;;;;;;;2.25;1.40;;;22.70;51.80;;;;;;6317054;28;20496;-66
2021/06/04 13:49:05;;;;;;;1.58;1.10;;;22.70;51.70;;;;;;6316599;28;20080;-67
2021/06/04 13:52:12;;;;;;;2.03;1.20;;;22.70;51.80;;;;;;6333114;28;20016;-67
2021/06/04 13:55:19;;;;;;;2.15;1.25;;;22.70;51.80;;;;;;6329508;28;20219;-67
2021/06/04 13:58:19;;;;;;;3.55;1.50;;;22.70;51.80;;;;;;6342123;28;20164;-67
2021/06/04 14:01:25;;;;;;;2.03;1.20;;;22.70;51.80;;;;;;6342277;28;20020;-67
2021/06/04 14:04:46;;;;;;;3.28;1.48;;;22.70;51.80;;;;;;6321912;28;20128;-67
2021/06/04 14:07:48;;;;;;;1.40;1.00;;;22.70;51.70;;;;;;6322001;28;20117;-67
2021/06/04 14:10:52;;;;;;;1.55;1.00;;;22.80;51.80;;;;;;6340556;28;20030;-67
2021/06/04 14:13:53;;;;;;;1.85;1.38;;;22.70;51.70;;;;;;6343590;28;20031;-66
2021/06/04 14:16:54;;;;;;;1.35;1.02;;;22.70;51.70;;;;;;6334156;28;20020;-65
2021/06/04 14:19:59;;;;;;;1.52;1.15;;;22.70;51.70;;;;;;6340664;28;20034;-65
2021/06/04 14:22:59;;;;;;;1.42;1.02;;;22.70;51.70;;;;;;6340957;28;20022;-66
2021/06/04 14:26:41;;;;;;;1.80;1.00;;;22.70;51.80;;;;;;6341347;28;20023;-65
2021/06/04 14:29:48;;;;;;;4.07;1.17;;;22.70;51.70;;;;;;6248890;28;20074;-65
2021/06/04 14:33:10;;;;;;;1.33;1.00;;;22.70;51.80;;;;;;6345929;28;20055;-66
2021/06/04 14:36:21;;;;;;;1.88;1.15;;;22.70;51.80;;;;;;6345959;28;20027;-66
2021/06/04 14:39:50;;;;;;;2.67;1.17;;;22.70;51.80;;;;;;6327769;28;20549;-66
2021/06/04 14:42:51;;;;;;;1.60;1.10;;;22.70;51.70;;;;;;6346420;28;20034;-65
2021/06/04 14:45:52;;;;;;;2.72;1.02;;;22.70;51.80;;;;;;6346472;28;20035;-65
2021/06/04 14:48:55;;;;;;;1.70;0.93;;;22.70;51.80;;;;;;6347180;28;20099;-66
2021/06/04 14:51:55;;;;;;;1.73;1.08;;;22.70;51.80;;;;;;6345717;28;20066;-66
2021/06/04 14:54:56;;;;;;;2.25;1.38;;;22.70;51.80;;;;;;6340330;28;20046;-65
2021/06/04 14:57:59;;;;;;;1.90;1.10;;;22.70;51.80;;;;;;6345086;28;20023;-66
2021/06/04 15:01:00;;;;;;;1.35;1.05;;;22.70;51.80;;;;;;6345734;28;20019;-65
2021/06/04 15:04:01;;;;;;;1.40;1.02;;;22.70;51.80;;;;;;6347199;28;20443;-65
2021/06/04 15:07:01;;;;;;;1.55;1.17;;;22.70;51.80;;;;;;6346183;28;20035;-66
2021/06/04 15:10:05;;;;;;;2.05;1.10;;;22.70;51.80;;;;;;6342945;28;20049;-66
2021/06/04 15:13:12;;;;;;;1.50;1.05;;;22.70;51.80;;;;;;6345686;28;20401;-65
2021/06/04 15:16:16;;;;;;;2.22;1.00;;;22.70;51.80;;;;;;6329045;28;20088;-65
2021/06/04 15:19:16;;;;;;;2.25;1.15;;;22.70;51.80;;;;;;6345623;28;20031;-66
2021/06/04 15:22:17;;;;;;;1.30;0.90;;;22.70;51.90;;;;;;6345523;28;20020;-65
2021/06/04 15:25:18;;;;;;;1.30;1.10;;;22.70;51.80;;;;;;6345255;28;20055;-66
2021/06/04 15:28:26;;;;;;;1.65;1.10;;;22.70;51.80;;;;;;6345174;28;20156;-66
2021/06/04 15:31:27;;;;;;;1.45;0.98;;;22.70;51.80;;;;;;6326593;28;20396;-65
2021/06/04 15:34:33;;;;;;;1.77;1.02;;;22.70;51.80;;;;;;6345608;28;20035;-66
2021/06/04 15:37:34;;;;;;;1.40;0.90;;;22.70;51.80;;;;;;6326831;28;20139;-66
2021/06/04 15:40:34;;;;;;;2.05;1.00;;;22.70;51.80;;;;;;6342994;28;20070;-66
2021/06/04 15:43:36;;;;;;;1.42;1.05;;;22.70;52.50;;;;;;6345274;28;20050;-66
2021/06/04 15:46:36;;;;;;;1.38;0.80;;;22.70;51.80;;;;;;6344950;28;20149;-66
2021/06/04 15:49:37;;;;;;;1.67;0.90;;;22.70;51.90;;;;;;6344998;28;20462;-66
2021/06/04 15:52:38;;;;;;;1.10;1.00;;;22.70;51.80;;;;;;6345056;28;20089;-66
2021/06/04 15:55:39;;;;;;;1.13;0.90;;;22.70;51.90;;;;;;6344700;28;20138;-65
2021/06/04 15:58:41;;;;;;;1.52;1.00;;;22.70;51.80;;;;;;6344272;28;20039;-66
2021/06/04 16:01:43;;;;;;;1.17;0.85;;;22.70;51.80;;;;;;6344361;28;20031;-66
2021/06/04 16:04:47;;;;;;;0.90;0.70;;;22.70;51.90;;;;;;6344534;28;20030;-66
2021/06/04 16:07:49;;;;;;;1.52;1.00;;;22.70;51.80;;;;;;6343698;28;20042;-66
2021/06/04 16:10:50;;;;;;;1.02;0.88;;;22.70;51.80;;;;;;6344020;28;20476;-65
2021/06/04 16:13:50;;;;;;;1.17;0.90;;;22.70;51.90;;;;;;6344178;28;20343;-65